Time;durP1;ratioP1;P1;durP2;ratioP2;P2;SDS_P1;SDS_P2;PMS_P1;PMS_P2;Temp;Humidity;BMP_temperature;BMP_pressure;BME280_temperature;BME280_humidity;BME280_pressure;Samples;Min_cycle;Max_cycle;Signal;HPM_P1;HPM_P2
2022/09/16 00:02:24;;;;;;;6.53;0.60;;;11.70;99.90;;;;;;5009619;28;20080;-77
2022/09/16 00:04:50;;;;;;;5.50;0.57;;;11.60;99.90;;;;;;5034477;28;20396;-77
2022/09/16 00:07:16;;;;;;;4.35;0.77;;;11.70;99.90;;;;;;5025392;28;20033;-77
2022/09/16 00:09:41;;;;;;;2.60;0.55;;;11.60;99.90;;;;;;5026512;28;20042;-77
2022/09/16 00:12:07;;;;;;;10.20;2.35;;;11.70;99.90;;;;;;5024946;28;20120;-77
2022/09/16 00:14:32;;;;;;;3.63;0.95;;;11.70;99.90;;;;;;5027304;28;20041;-77
2022/09/16 00:16:58;;;;;;;3.67;0.85;;;11.70;99.90;;;;;;5023688;28;20033;-76
2022/09/16 00:19:24;;;;;;;4.78;0.70;;;11.60;99.90;;;;;;5024074;28;20071;-78
2022/09/16 00:21:50;;;;;;;9.48;2.38;;;11.50;99.90;;;;;;5028187;28;20067;-76
2022/09/16 00:24:16;;;;;;;5.22;0.40;;;11.60;99.90;;;;;;5033301;28;20503;-77
2022/09/16 00:26:42;;;;;;;1.85;0.55;;;11.60;99.90;;;;;;5023116;28;20037;-77
2022/09/16 00:29:08;;;;;;;3.78;0.70;;;11.50;99.90;;;;;;5024371;28;20041;-78
2022/09/16 00:31:33;;;;;;;3.13;0.40;;;11.50;99.90;;;;;;5024437;28;20083;-78
2022/09/16 00:33:59;;;;;;;4.00;0.32;;;11.50;99.90;;;;;;5025728;28;20642;-77
2022/09/16 00:36:25;;;;;;;4.15;1.02;;;11.60;99.90;;;;;;5031872;28;20079;-77
2022/09/16 00:38:53;;;;;;;1.65;0.30;;;11.60;99.90;;;;;;5025089;28;20045;-77
2022/09/16 00:41:35;;;;;;;7.90;1.52;;;11.50;99.90;;;;;;5023722;28;20049;-77
2022/09/16 00:44:26;;;;;;;1.52;0.40;;;11.50;99.90;;;;;;5025314;28;20051;-77
2022/09/16 00:46:52;;;;;;;;;;;11.50;99.90;;;;;;5021282;28;20461;-78
2022/09/16 00:49:23;;;;;;;3.78;0.55;;;11.50;99.90;;;;;;5024599;28;20065;-78
2022/09/16 00:51:53;;;;;;;5.72;1.20;;;11.60;99.90;;;;;;5013726;28;20072;-77
2022/09/16 00:54:19;;;;;;;4.80;1.48;;;11.50;99.90;;;;;;5032731;28;20057;-77
2022/09/16 00:56:48;;;;;;;10.10;1.55;;;11.60;99.90;;;;;;5023525;28;20041;-77
2022/09/16 00:59:25;;;;;;;5.85;1.10;;;11.60;99.90;;;;;;5022732;28;20091;-77
2022/09/16 01:01:54;;;;;;;4.15;0.93;;;11.60;99.90;;;;;;5023187;28;20033;-77
2022/09/16 01:04:34;;;;;;;8.38;0.73;;;11.60;99.90;;;;;;5026038;28;20061;-77
2022/09/16 01:07:00;;;;;;;8.18;1.65;;;11.70;99.90;;;;;;5022256;28;20468;-75
2022/09/16 01:09:28;;;;;;;6.22;1.38;;;11.60;99.90;;;;;;5009325;28;20099;-77
2022/09/16 01:11:53;;;;;;;4.72;0.80;;;11.60;99.90;;;;;;5023664;28;20052;-77
2022/09/16 01:17:19;;;;;;;4.03;1.50;;;11.60;99.90;;;;;;5023116;28;20045;-76
2022/09/16 01:20:04;;;;;;;3.33;0.55;;;11.50;99.90;;;;;;5027354;28;20045;-76
2022/09/16 01:23:09;;;;;;;6.93;1.15;;;11.60;99.90;;;;;;5025829;28;20059;-78
2022/09/16 01:25:49;;;;;;;7.13;0.90;;;11.70;99.90;;;;;;5008147;28;20171;-77
2022/09/16 01:28:30;;;;;;;7.13;0.98;;;11.50;99.90;;;;;;5024274;28;20034;-76
2022/09/16 01:31:17;;;;;;;4.35;0.80;;;11.40;99.90;;;;;;5024008;28;20052;-76
2022/09/16 01:33:58;;;;;;;11.35;2.08;;;11.40;99.90;;;;;;5026054;28;20073;-76
2022/09/16 01:36:30;;;;;;;6.15;0.85;;;11.40;99.90;;;;;;5036760;28;20132;-76
2022/09/16 01:39:27;;;;;;;3.47;1.15;;;11.30;99.90;;;;;;5024059;28;20116;-77
2022/09/16 01:42:15;;;;;;;7.90;0.93;;;11.40;99.90;;;;;;5011440;28;20049;-77
2022/09/16 01:44:56;;;;;;;4.90;1.02;;;11.20;99.90;;;;;;5027502;22;20053;-76
2022/09/16 01:47:30;;;;;;;4.32;0.85;;;11.30;99.90;;;;;;5016878;28;20045;-77
2022/09/16 01:50:08;;;;;;;15.10;1.58;;;11.20;99.90;;;;;;5024257;28;20045;-77
2022/09/16 01:52:45;;;;;;;3.55;0.63;;;11.30;99.90;;;;;;5021042;28;20132;-76
2022/09/16 01:55:39;;;;;;;7.78;0.65;;;11.30;99.90;;;;;;5023919;28;20038;-76
2022/09/16 01:58:37;;;;;;;3.03;1.15;;;11.20;99.90;;;;;;5022146;28;20096;-77
2022/09/16 02:01:31;;;;;;;5.65;0.55;;;11.20;99.90;;;;;;4989110;28;20829;-78
2022/09/16 02:04:06;;;;;;;5.13;1.40;;;11.10;99.90;;;;;;5013963;28;20041;-78
2022/09/16 02:06:33;;;;;;;11.57;2.00;;;11.10;99.90;;;;;;5037455;28;20064;-77
2022/09/16 02:09:12;;;;;;;6.25;1.58;;;11.20;99.90;;;;;;5044755;28;20044;-80
2022/09/16 02:11:40;;;;;;;9.45;0.90;;;11.10;99.90;;;;;;5035078;28;20045;-78
2022/09/16 02:14:13;;;;;;;3.75;1.05;;;11.00;99.90;;;;;;5024367;28;20044;-77
2022/09/16 02:16:49;;;;;;;12.07;1.83;;;11.00;99.90;;;;;;5022851;28;20099;-77
2022/09/16 02:19:20;;;;;;;9.38;1.10;;;11.20;99.90;;;;;;5027440;28;20109;-77
2022/09/16 02:21:48;;;;;;;6.85;1.33;;;11.10;99.90;;;;;;5021504;28;20057;-77
2022/09/16 02:24:18;;;;;;;6.90;1.08;;;11.30;99.90;;;;;;5023652;28;20056;-78
2022/09/16 02:26:53;;;;;;;7.93;1.65;;;11.20;99.90;;;;;;5026084;28;20045;-76
2022/09/16 02:29:25;;;;;;;10.60;1.38;;;11.30;99.90;;;;;;5005982;28;20103;-77
2022/09/16 02:31:57;;;;;;;7.32;1.05;;;11.30;99.90;;;;;;5023324;28;20048;-77
2022/09/16 02:34:28;;;;;;;5.10;1.13;;;11.30;99.90;;;;;;5027042;28;20056;-77
2022/09/16 02:37:00;;;;;;;5.80;1.15;;;11.30;99.90;;;;;;5044393;28;20033;-77
2022/09/16 02:39:29;;;;;;;5.78;0.98;;;11.30;99.90;;;;;;5044289;28;20102;-77
2022/09/16 02:41:55;;;;;;;17.80;2.38;;;11.30;99.90;;;;;;5036284;28;20059;-77
2022/09/16 02:44:24;;;;;;;9.45;1.25;;;11.30;99.90;;;;;;5023727;28;20060;-77
2022/09/16 02:47:01;;;;;;;9.57;1.38;;;11.30;99.90;;;;;;5023211;28;20053;-77
2022/09/16 02:49:47;;;;;;;4.53;1.38;;;11.30;99.90;;;;;;5032707;28;20095;-75
2022/09/16 02:52:38;;;;;;;3.25;0.57;;;11.20;99.90;;;;;;5022047;28;20038;-75
2022/09/16 02:55:33;;;;;;;4.25;1.15;;;11.30;99.90;;;;;;5019960;28;20046;-75
2022/09/16 02:57:59;;;;;;;5.35;0.60;;;11.10;99.90;;;;;;5028052;28;20037;-76
2022/09/16 03:00:27;;;;;;;5.72;1.42;;;11.00;99.90;;;;;;5022760;28;20527;-76
2022/09/16 03:02:53;;;;;;;5.25;1.02;;;11.10;99.90;;;;;;5024506;28;20045;-76
2022/09/16 03:05:18;;;;;;;5.45;0.98;;;11.20;99.90;;;;;;5023570;28;20421;-76
2022/09/16 03:07:44;;;;;;;10.50;2.28;;;11.30;99.90;;;;;;5026623;28;20041;-76
2022/09/16 03:10:13;;;;;;;5.32;0.93;;;11.20;99.90;;;;;;5026232;28;20124;-77
2022/09/16 03:12:55;;;;;;;6.40;1.08;;;11.20;99.90;;;;;;5025262;28;20052;-77
2022/09/16 03:15:32;;;;;;;8.00;0.93;;;11.20;99.90;;;;;;5031271;28;20103;-74
2022/09/16 03:18:11;;;;;;;6.90;0.95;;;11.10;99.90;;;;;;5046731;28;20055;-76
2022/09/16 03:20:44;;;;;;;6.38;0.80;;;11.10;99.90;;;;;;5032292;28;20410;-76
2022/09/16 03:23:43;;;;;;;6.30;0.95;;;11.10;99.90;;;;;;5014417;28;20052;-74
2022/09/16 03:26:35;;;;;;;3.90;0.85;;;11.10;99.90;;;;;;5031057;28;20053;-77
2022/09/16 03:29:18;;;;;;;6.30;1.05;;;11.10;99.90;;;;;;5030608;28;20132;-76
2022/09/16 03:32:16;;;;;;;9.75;1.73;;;11.10;99.90;;;;;;5029379;28;20051;-76
2022/09/16 03:34:53;;;;;;;9.93;1.58;;;10.90;99.90;;;;;;5022766;28;20137;-76
2022/09/16 03:37:20;;;;;;;8.07;1.33;;;10.90;99.90;;;;;;5025009;28;20546;-77
2022/09/16 03:39:56;;;;;;;12.88;2.08;;;10.90;99.90;;;;;;5028538;28;20120;-76
2022/09/16 03:42:22;;;;;;;4.05;1.27;;;10.90;99.90;;;;;;5029776;28;20048;-75
2022/09/16 03:44:48;;;;;;;8.70;1.70;;;11.00;99.90;;;;;;5035654;28;20419;-78
2022/09/16 03:47:15;;;;;;;10.77;1.42;;;10.80;99.90;;;;;;5024060;28;20049;-77
2022/09/16 03:49:40;;;;;;;7.22;3.25;;;11.00;99.90;;;;;;5030612;28;20037;-76
2022/09/16 03:52:07;;;;;;;10.88;2.05;;;11.00;99.90;;;;;;5030633;28;20041;-79
2022/09/16 03:54:33;;;;;;;13.75;2.40;;;11.00;99.90;;;;;;5027728;28;20053;-77
2022/09/16 03:56:59;;;;;;;12.27;1.67;;;11.10;99.90;;;;;;5026592;28;20391;-77
2022/09/16 03:59:26;;;;;;;8.00;2.38;;;11.00;99.90;;;;;;5027785;28;20042;-78
2022/09/16 04:01:51;;;;;;;4.80;1.13;;;11.10;99.90;;;;;;5041545;28;20037;-77
2022/09/16 04:04:17;;;;;;;10.07;1.80;;;11.10;99.90;;;;;;5042925;28;20060;-76
2022/09/16 04:06:43;;;;;;;9.40;1.15;;;11.10;99.90;;;;;;5034429;28;20122;-76
2022/09/16 04:09:12;;;;;;;9.32;1.52;;;11.10;99.90;;;;;;5036061;28;20045;-77
2022/09/16 04:11:38;;;;;;;7.45;1.40;;;11.10;99.90;;;;;;5044864;28;20049;-77
2022/09/16 04:14:05;;;;;;;10.98;1.73;;;11.10;99.90;;;;;;5028654;28;20048;-77
2022/09/16 04:16:32;;;;;;;10.05;1.35;;;11.10;99.90;;;;;;5020633;28;20124;-77
2022/09/16 04:18:58;;;;;;;8.82;1.48;;;11.10;99.90;;;;;;5026953;28;20037;-77
2022/09/16 04:21:23;;;;;;;13.07;2.20;;;11.00;99.90;;;;;;5025394;28;20511;-77
2022/09/16 04:23:49;;;;;;;10.18;2.63;;;11.00;99.90;;;;;;5031669;28;20116;-77
2022/09/16 04:26:16;;;;;;;11.68;1.85;;;11.00;99.90;;;;;;5042417;28;20492;-77
2022/09/16 04:28:41;;;;;;;10.95;1.42;;;11.00;99.90;;;;;;5042362;28;20068;-78
2022/09/16 04:31:10;;;;;;;9.27;1.05;;;10.90;99.90;;;;;;5036266;28;20130;-77
2022/09/16 04:33:36;;;;;;;10.88;2.30;;;10.80;99.90;;;;;;5046451;28;20056;-77
2022/09/16 04:36:12;;;;;;;4.95;1.23;;;10.80;99.90;;;;;;5040730;28;20040;-78
2022/09/16 04:38:41;;;;;;;12.23;2.83;;;10.70;99.90;;;;;;5029342;28;20056;-76
2022/09/16 04:41:12;;;;;;;9.57;2.22;;;10.70;99.90;;;;;;5027770;28;20045;-76
2022/09/16 04:43:38;;;;;;;5.20;1.17;;;10.70;99.90;;;;;;5007586;28;20072;-76
2022/09/16 04:46:05;;;;;;;7.97;1.52;;;10.60;99.90;;;;;;5036237;28;20132;-77
2022/09/16 04:48:31;;;;;;;4.10;0.75;;;10.50;99.90;;;;;;5026863;28;20129;-79
2022/09/16 04:51:06;;;;;;;9.13;1.27;;;10.50;99.90;;;;;;5031717;28;20139;-78
2022/09/16 04:53:32;;;;;;;9.38;1.17;;;10.40;99.90;;;;;;5023312;28;20052;-77
2022/09/16 04:56:05;;;;;;;10.25;1.75;;;10.50;99.90;;;;;;5038396;28;20033;-78
2022/09/16 04:58:31;;;;;;;9.88;2.38;;;10.40;99.90;;;;;;5024410;28;20045;-77
2022/09/16 05:01:13;;;;;;;20.30;1.92;;;10.40;99.90;;;;;;5025832;28;20111;-78
2022/09/16 05:03:39;;;;;;;9.50;1.95;;;10.40;99.90;;;;;;5042191;28;20041;-77
2022/09/16 05:06:11;;;;;;;14.35;2.83;;;10.40;99.90;;;;;;5045870;28;20042;-77
2022/09/16 05:08:38;;;;;;;11.52;1.85;;;10.40;99.90;;;;;;5032557;28;20041;-75
2022/09/16 05:11:06;;;;;;;3.53;1.33;;;10.30;99.90;;;;;;5045133;28;20060;-77
2022/09/16 05:13:31;;;;;;;8.20;1.33;;;10.20;99.90;;;;;;5027038;28;20094;-77
2022/09/16 05:16:05;;;;;;;9.55;1.95;;;10.20;99.90;;;;;;5023782;28;20042;-78
2022/09/16 05:18:31;;;;;;;8.05;1.45;;;10.10;99.90;;;;;;5024292;28;20045;-76
2022/09/16 05:21:01;;;;;;;8.52;1.73;;;10.10;99.90;;;;;;5026248;28;20029;-76
2022/09/16 05:23:27;;;;;;;12.30;1.23;;;10.20;99.90;;;;;;5025270;28;20044;-77
2022/09/16 05:25:53;;;;;;;6.78;1.63;;;10.10;99.90;;;;;;5037660;28;20041;-77
2022/09/16 05:28:19;;;;;;;12.20;2.60;;;10.20;99.90;;;;;;5042401;28;20403;-77
2022/09/16 05:30:45;;;;;;;13.25;2.00;;;10.20;99.90;;;;;;5025346;28;20653;-78
2022/09/16 05:33:11;;;;;;;11.23;2.35;;;10.20;99.90;;;;;;5030644;28;20041;-77
2022/09/16 05:35:37;;;;;;;13.07;1.70;;;10.30;99.90;;;;;;5025713;28;20685;-75
2022/09/16 05:38:02;;;;;;;9.27;2.22;;;10.40;99.90;;;;;;5029712;28;20099;-79
2022/09/16 05:40:28;;;;;;;8.35;1.45;;;10.30;99.90;;;;;;5027344;28;20187;-78
2022/09/16 05:42:54;;;;;;;8.55;2.88;;;10.30;99.90;;;;;;5034708;28;20056;-75
2022/09/16 05:45:20;;;;;;;8.55;2.78;;;10.40;99.90;;;;;;5039826;28;20045;-76
2022/09/16 05:47:49;;;;;;;14.30;1.85;;;10.50;99.90;;;;;;5042583;28;20475;-75
2022/09/16 05:50:15;;;;;;;13.73;2.35;;;10.50;99.90;;;;;;5030620;28;20041;-76
2022/09/16 05:52:41;;;;;;;5.88;1.77;;;10.40;99.90;;;;;;5023256;28;20115;-75
2022/09/16 05:55:07;;;;;;;11.82;2.10;;;10.60;99.90;;;;;;5020473;28;20559;-76
2022/09/16 05:57:32;;;;;;;9.90;1.92;;;10.70;99.90;;;;;;5026713;28;20049;-75
2022/09/16 05:59:58;;;;;;;9.32;1.73;;;10.60;99.90;;;;;;5017000;28;20052;-74
2022/09/16 06:02:24;;;;;;;11.27;1.95;;;10.60;99.90;;;;;;5027574;28;20125;-75
2022/09/16 06:04:50;;;;;;;6.63;1.40;;;10.60;99.90;;;;;;5019986;28;20333;-76
2022/09/16 06:07:16;;;;;;;9.52;2.17;;;10.80;99.90;;;;;;5031516;28;20037;-77
2022/09/16 06:09:42;;;;;;;11.05;1.83;;;10.60;99.90;;;;;;5031311;28;20045;-76
2022/09/16 06:12:08;;;;;;;8.02;1.50;;;10.70;99.90;;;;;;5036878;28;20040;-76
2022/09/16 06:14:34;;;;;;;7.15;1.45;;;10.60;99.90;;;;;;5044144;28;20407;-76
2022/09/16 06:17:00;;;;;;;4.85;1.02;;;10.60;99.90;;;;;;5034281;28;20047;-76
2022/09/16 06:19:26;;;;;;;12.68;2.00;;;10.60;99.90;;;;;;5027223;28;20048;-76
2022/09/16 06:21:52;;;;;;;10.63;2.38;;;10.60;99.90;;;;;;5028107;28;20045;-76
2022/09/16 06:24:19;;;;;;;11.77;2.10;;;10.60;99.90;;;;;;5021803;28;20041;-76
2022/09/16 06:26:46;;;;;;;9.40;2.25;;;10.80;99.90;;;;;;5035834;28;20041;-77
2022/09/16 06:29:15;;;;;;;7.05;1.55;;;11.00;99.90;;;;;;5027354;28;20050;-76
2022/09/16 06:31:41;;;;;;;7.95;1.17;;;11.00;99.90;;;;;;5023870;28;20041;-76
2022/09/16 06:34:13;;;;;;;7.53;1.38;;;11.00;99.90;;;;;;5028618;28;20120;-77
2022/09/16 06:36:39;;;;;;;7.22;1.17;;;11.20;99.90;;;;;;5023641;28;20120;-76
2022/09/16 06:39:05;;;;;;;9.10;3.15;;;11.20;99.90;;;;;;5024885;28;20132;-77
2022/09/16 06:41:32;;;;;;;9.13;2.45;;;11.30;99.90;;;;;;5026695;28;20030;-77
2022/09/16 06:43:58;;;;;;;10.98;1.58;;;11.20;99.90;;;;;;5040082;28;20085;-78
2022/09/16 06:46:26;;;;;;;8.50;1.50;;;11.20;99.90;;;;;;5030049;28;20415;-78
2022/09/16 06:48:55;;;;;;;17.45;2.20;;;11.10;99.90;;;;;;5044558;28;20822;-78
2022/09/16 06:51:28;;;;;;;6.50;2.07;;;11.10;99.90;;;;;;5025500;28;20044;-79
2022/09/16 06:53:59;;;;;;;7.07;1.27;;;11.10;99.90;;;;;;5033844;28;20044;-78
2022/09/16 06:56:25;;;;;;;7.03;1.70;;;11.20;99.90;;;;;;5044392;28;20669;-77
2022/09/16 06:58:54;;;;;;;10.98;1.30;;;11.30;99.90;;;;;;5031239;28;20407;-77
2022/09/16 07:01:28;;;;;;;11.73;1.20;;;11.30;99.90;;;;;;5038052;28;20041;-76
2022/09/16 07:03:56;;;;;;;10.60;2.13;;;11.40;99.90;;;;;;5040590;28;21008;-75
2022/09/16 07:06:24;;;;;;;11.77;2.22;;;11.70;99.90;;;;;;5029845;28;20128;-77
2022/09/16 07:08:49;;;;;;;11.93;1.63;;;11.70;99.90;;;;;;5030556;28;20048;-77
2022/09/16 07:11:17;;;;;;;8.85;1.90;;;11.90;99.90;;;;;;5041327;28;20482;-79
2022/09/16 07:13:43;;;;;;;13.95;2.72;;;12.00;99.90;;;;;;5047657;28;20041;-77
2022/09/16 07:16:11;;;;;;;9.70;1.95;;;12.10;99.90;;;;;;5038154;28;20037;-77
2022/09/16 07:18:37;;;;;;;9.88;1.83;;;12.20;99.90;;;;;;5045404;28;20048;-78
2022/09/16 07:21:10;;;;;;;8.68;2.28;;;12.40;99.90;;;;;;5027583;28;20038;-78
2022/09/16 07:23:37;;;;;;;12.93;2.30;;;12.50;99.90;;;;;;5030719;28;20045;-77
2022/09/16 07:26:04;;;;;;;12.68;2.03;;;12.70;99.90;;;;;;5029090;28;20045;-80
2022/09/16 07:28:31;;;;;;;7.78;1.45;;;12.90;99.90;;;;;;5036080;28;20053;-81
2022/09/16 07:31:01;;;;;;;12.35;1.60;;;12.90;99.90;;;;;;5028103;28;20416;-80
2022/09/16 07:33:26;;;;;;;14.20;1.58;;;13.00;99.90;;;;;;5026246;28;20045;-80
2022/09/16 07:35:52;;;;;;;14.30;1.65;;;12.90;99.90;;;;;;5033596;28;20041;-79
2022/09/16 07:38:17;;;;;;;10.70;2.60;;;12.80;99.90;;;;;;5027524;28;20463;-78
2022/09/16 07:40:43;;;;;;;23.40;4.35;;;12.80;99.90;;;;;;5027957;28;20052;-80
2022/09/16 07:43:09;;;;;;;21.67;2.90;;;13.00;99.90;;;;;;5025056;28;20092;-80
2022/09/16 07:45:34;;;;;;;7.20;2.03;;;13.20;99.90;;;;;;5034498;28;20116;-79
2022/09/16 07:48:00;;;;;;;12.77;1.58;;;13.40;99.90;;;;;;5046552;28;20045;-79
2022/09/16 07:50:26;;;;;;;11.48;2.53;;;13.70;99.90;;;;;;5046177;28;20404;-81
2022/09/16 07:52:55;;;;;;;11.57;2.20;;;13.80;99.90;;;;;;5034858;28;20076;-80
2022/09/16 07:55:21;;;;;;;16.45;2.53;;;14.10;99.90;;;;;;5025671;28;20046;-79
2022/09/16 07:57:47;;;;;;;12.20;2.30;;;13.90;99.90;;;;;;5026584;28;20053;-82
2022/09/16 08:00:15;;;;;;;6.47;1.88;;;13.70;99.90;;;;;;5032820;28;20041;-79
2022/09/16 08:02:40;;;;;;;11.68;2.63;;;13.60;99.90;;;;;;5042984;28;20431;-76
2022/09/16 08:05:08;;;;;;;13.88;2.08;;;13.50;99.90;;;;;;5024669;28;20144;-74
2022/09/16 08:07:33;;;;;;;11.98;2.47;;;13.30;99.90;;;;;;5039336;28;20068;-76
2022/09/16 08:09:59;;;;;;;13.18;2.90;;;13.30;99.90;;;;;;5029432;28;20759;-82
2022/09/16 08:12:24;;;;;;;14.45;2.67;;;13.20;99.90;;;;;;5043723;28;20079;-86
2022/09/16 08:14:50;;;;;;;16.88;3.25;;;13.20;99.90;;;;;;5045391;28;20609;-81
2022/09/16 08:17:16;;;;;;;9.45;2.38;;;13.30;99.90;;;;;;5037337;28;20655;-78
2022/09/16 08:19:41;;;;;;;7.85;1.55;;;13.40;99.90;;;;;;5027624;28;20052;-81
2022/09/16 08:22:07;;;;;;;19.63;4.03;;;13.60;99.90;;;;;;5025949;28;20048;-81
2022/09/16 08:24:33;;;;;;;14.90;2.33;;;13.70;99.90;;;;;;5023366;28;20052;-82
2022/09/16 08:26:58;;;;;;;16.05;1.70;;;13.80;99.90;;;;;;5033693;28;20480;-81
2022/09/16 08:29:24;;;;;;;7.88;2.13;;;13.90;99.90;;;;;;5041716;28;20063;-80
2022/09/16 08:31:50;;;;;;;10.70;3.17;;;14.00;99.90;;;;;;5045443;28;20132;-80
2022/09/16 08:34:16;;;;;;;8.48;2.08;;;14.10;99.90;;;;;;5035051;28;20041;-82
2022/09/16 08:36:42;;;;;;;8.95;1.45;;;14.20;99.90;;;;;;5030596;28;20464;-81
2022/09/16 08:39:10;;;;;;;18.10;3.38;;;14.30;99.90;;;;;;5046838;28;20409;-81
2022/09/16 08:41:49;;;;;;;9.57;1.27;;;14.40;99.90;;;;;;5046993;28;20079;-84
2022/09/16 08:44:52;;;;;;;9.80;2.40;;;14.50;99.90;;;;;;5024110;28;20548;-82
2022/09/16 08:47:37;;;;;;;9.77;1.30;;;14.70;99.90;;;;;;5038628;28;20048;-80
2022/09/16 08:50:09;;;;;;;7.80;1.17;;;14.80;99.90;;;;;;5030233;28;20052;-81
2022/09/16 08:52:37;;;;;;;25.33;2.53;;;14.80;99.90;;;;;;5024742;28;20053;-82
2022/09/16 08:55:24;;;;;;;8.20;1.30;;;14.80;99.90;;;;;;5022389;28;20056;-85
2022/09/16 08:57:58;;;;;;;9.88;1.52;;;14.90;99.90;;;;;;5037415;28;20102;-81
2022/09/16 09:00:24;;;;;;;14.77;2.05;;;15.00;99.90;;;;;;5022398;28;20146;-83
2022/09/16 09:02:57;;;;;;;7.10;2.03;;;15.20;99.90;;;;;;5019768;28;20420;-81
2022/09/16 09:05:42;;;;;;;16.52;2.60;;;15.20;99.90;;;;;;5023409;28;20080;-82
2022/09/16 09:08:55;;;;;;;11.55;1.33;;;15.20;99.90;;;;;;5016534;28;20099;-82
2022/09/16 09:11:46;;;;;;;11.95;1.73;;;15.20;99.90;;;;;;5031286;28;20045;-79
2022/09/16 09:14:33;;;;;;;13.50;2.42;;;15.30;99.90;;;;;;5026540;28;20431;-81
2022/09/16 09:17:09;;;;;;;11.48;3.38;;;15.40;99.90;;;;;;5026205;28;20053;-82
2022/09/16 09:20:08;;;;;;;13.43;2.88;;;15.40;99.90;;;;;;5027108;28;20057;-84
2022/09/16 09:22:56;;;;;;;5.63;1.10;;;15.60;99.90;;;;;;5021787;28;20041;-82
2022/09/16 09:25:44;;;;;;;10.13;2.17;;;15.80;99.90;;;;;;5025659;28;20041;-85
2022/09/16 09:28:22;;;;;;;9.90;1.75;;;15.60;99.90;;;;;;5020460;28;20083;-83
2022/09/16 09:31:00;;;;;;;14.88;2.85;;;15.60;99.90;;;;;;5028541;28;20037;-84
2022/09/16 09:33:50;;;;;;;8.15;1.48;;;15.60;99.90;;;;;;5032219;28;20053;-84
2022/09/16 09:36:27;;;;;;;19.98;3.63;;;15.30;99.90;;;;;;5028428;28;20429;-83
2022/09/16 09:38:55;;;;;;;6.78;2.17;;;15.20;99.90;;;;;;5027332;28;20090;-83
2022/09/16 09:41:33;;;;;;;12.77;2.08;;;15.40;99.90;;;;;;5040813;28;20042;-85
2022/09/16 09:44:26;;;;;;;8.80;1.77;;;15.60;99.90;;;;;;5023948;28;20077;-84
2022/09/16 09:46:56;;;;;;;8.82;2.03;;;15.90;99.90;;;;;;5024134;28;20060;-83
2022/09/16 09:49:30;;;;;;;11.18;1.80;;;15.90;99.90;;;;;;5034610;28;20037;-82
2022/09/16 09:52:11;;;;;;;7.78;1.67;;;15.80;99.90;;;;;;5020525;28;20111;-85
2022/09/16 09:54:38;;;;;;;6.28;2.50;;;15.90;99.90;;;;;;5021205;28;20103;-84
2022/09/16 09:57:19;;;;;;;4.60;0.98;;;15.90;99.90;;;;;;5023822;28;20033;-85
2022/09/16 09:59:57;;;;;;;7.63;1.48;;;15.90;99.90;;;;;;5032596;28;20115;-85
2022/09/16 10:02:23;;;;;;;8.50;1.52;;;15.80;99.90;;;;;;5058658;28;20036;-82
2022/09/16 10:04:49;;;;;;;7.78;1.25;;;15.90;99.90;;;;;;5054457;28;20059;-81
2022/09/16 10:07:18;;;;;;;10.07;1.83;;;15.90;99.90;;;;;;5044020;28;20395;-83
2022/09/16 10:10:00;;;;;;;9.75;1.40;;;16.10;99.90;;;;;;5043736;28;20044;-84
2022/09/16 10:12:30;;;;;;;12.07;2.30;;;16.30;99.90;;;;;;5023821;28;20182;-83
2022/09/16 10:14:57;;;;;;;9.43;1.13;;;16.20;99.90;;;;;;5023155;28;20042;-81
2022/09/16 10:17:24;;;;;;;10.18;1.55;;;16.20;99.90;;;;;;5019872;28;20042;-83
2022/09/16 10:19:51;;;;;;;8.98;1.85;;;16.10;99.90;;;;;;5028513;28;20191;-83
2022/09/16 10:22:30;;;;;;;5.07;1.75;;;16.40;99.90;;;;;;5028712;28;20075;-80
2022/09/16 10:24:59;;;;;;;7.85;1.92;;;16.60;99.90;;;;;;5027749;28;20045;-84
2022/09/16 10:27:26;;;;;;;7.05;1.13;;;16.50;99.90;;;;;;5027691;28;20106;-82
2022/09/16 10:30:18;;;;;;;10.68;1.63;;;16.60;99.90;;;;;;5049038;28;20395;-85
2022/09/16 10:33:01;;;;;;;8.13;1.60;;;16.50;99.90;;;;;;5029994;28;20050;-82
2022/09/16 10:35:32;;;;;;;9.07;1.50;;;16.70;99.90;;;;;;5014908;28;20121;-85
2022/09/16 10:38:03;;;;;;;5.10;1.50;;;16.50;99.90;;;;;;5029267;28;20057;-86
2022/09/16 10:40:29;;;;;;;9.15;1.83;;;16.50;99.90;;;;;;5032338;28;20041;-79
2022/09/16 10:43:02;;;;;;;9.18;2.10;;;16.40;99.90;;;;;;5030585;28;20376;-78
2022/09/16 10:45:31;;;;;;;5.65;1.48;;;16.20;99.90;;;;;;5037545;28;20081;-78
2022/09/16 10:47:59;;;;;;;6.65;1.20;;;16.10;99.90;;;;;;5028275;28;20041;-78
2022/09/16 10:50:25;;;;;;;9.63;2.35;;;16.30;99.90;;;;;;5028775;28;20053;-82
2022/09/16 10:52:52;;;;;;;7.57;2.13;;;16.30;99.90;;;;;;5043439;28;20049;-81
2022/09/16 10:55:35;;;;;;;6.03;1.45;;;16.50;99.90;;;;;;5029913;28;20049;-84
2022/09/16 10:58:16;;;;;;;6.68;1.05;;;16.50;99.90;;;;;;5021947;28;20053;-82
2022/09/16 11:00:49;;;;;;;44.80;3.40;;;16.30;99.90;;;;;;5026037;28;20099;-86
2022/09/16 11:03:40;;;;;;;8.15;2.90;;;16.40;99.90;;;;;;5008728;28;20138;-85
2022/09/16 11:06:42;;;;;;;9.52;3.20;;;16.50;99.90;;;;;;5030350;28;20045;-86
2022/09/16 11:09:27;;;;;;;10.60;1.20;;;16.40;99.90;;;;;;5018786;28;20049;-86
2022/09/16 11:12:02;;;;;;;7.78;1.48;;;15.80;99.90;;;;;;5036422;28;20041;-83
2022/09/16 11:14:45;;;;;;;6.78;1.77;;;15.50;99.90;;;;;;5027974;28;20048;-86
2022/09/16 11:17:35;;;;;;;7.47;1.67;;;15.60;99.90;;;;;;5038706;28;20041;-86
2022/09/16 11:20:30;;;;;;;9.27;1.27;;;16.00;99.90;;;;;;5035786;28;20044;-84
2022/09/16 11:23:05;;;;;;;13.40;3.05;;;16.20;99.90;;;;;;5012577;28;20358;-85
2022/09/16 11:25:45;;;;;;;7.20;1.92;;;16.30;99.90;;;;;;5027034;28;20065;-85
2022/09/16 11:28:35;;;;;;;7.57;2.00;;;16.60;99.90;;;;;;5025661;28;20049;-86
2022/09/16 11:31:26;;;;;;;8.57;1.38;;;16.70;99.90;;;;;;5024326;28;20040;-84
2022/09/16 11:34:00;;;;;;;7.78;1.20;;;16.60;99.90;;;;;;5026703;28;20124;-83
2022/09/16 11:36:53;;;;;;;7.20;2.05;;;16.30;99.90;;;;;;5027691;28;20060;-84
2022/09/16 11:39:56;;;;;;;10.60;2.40;;;15.60;99.90;;;;;;5027878;28;20373;-84
2022/09/16 11:42:44;;;;;;;4.63;0.82;;;15.10;99.90;;;;;;5023658;28;20085;-86
2022/09/16 11:45:28;;;;;;;7.28;1.63;;;15.00;99.90;;;;;;5028648;28;20448;-82
2022/09/16 11:48:18;;;;;;;10.20;1.73;;;15.30;99.90;;;;;;5031904;28;20050;-84
2022/09/16 11:51:00;;;;;;;13.68;2.38;;;15.70;99.90;;;;;;5029497;28;20049;-82
2022/09/16 11:53:41;;;;;;;8.52;2.13;;;16.00;99.90;;;;;;5027516;28;20128;-84
2022/09/16 11:56:13;;;;;;;11.32;2.28;;;16.20;99.90;;;;;;5031026;28;20048;-82
2022/09/16 11:58:45;;;;;;;12.35;2.95;;;16.40;99.90;;;;;;5031067;28;20041;-85
2022/09/16 12:01:23;;;;;;;9.55;2.78;;;16.40;99.90;;;;;;5031868;28;20017;-83
2022/09/16 12:03:59;;;;;;;8.00;2.45;;;16.30;99.90;;;;;;5050552;28;20041;-83
2022/09/16 12:06:33;;;;;;;10.00;2.10;;;16.30;99.90;;;;;;5047779;28;20041;-85
2022/09/16 12:09:06;;;;;;;13.73;2.17;;;16.20;99.90;;;;;;5031070;28;20038;-82
2022/09/16 12:12:04;;;;;;;11.57;2.15;;;16.00;99.90;;;;;;5044500;28;20059;-79
2022/09/16 12:14:37;;;;;;;11.13;2.40;;;16.20;99.90;;;;;;5049976;28;20025;-83
2022/09/16 12:17:26;;;;;;;11.85;2.63;;;16.30;99.90;;;;;;5050274;28;20045;-73
2022/09/16 12:20:15;;;;;;;15.07;3.60;;;16.30;99.90;;;;;;5049304;28;20034;-80
2022/09/16 12:22:49;;;;;;;12.63;2.17;;;16.40;99.90;;;;;;5028030;28;20068;-82
2022/09/16 12:25:40;;;;;;;10.52;3.22;;;16.50;99.90;;;;;;5050838;28;20023;-81
2022/09/16 12:28:24;;;;;;;14.90;2.55;;;16.50;99.90;;;;;;5048614;28;20044;-80
2022/09/16 12:31:35;;;;;;;12.10;1.92;;;16.70;99.90;;;;;;5050631;28;20097;-82
2022/09/16 12:34:30;;;;;;;14.98;1.85;;;16.70;99.90;;;;;;5004608;28;20404;-82
2022/09/16 12:37:07;;;;;;;13.48;3.58;;;16.70;99.90;;;;;;5046752;28;20044;-83
2022/09/16 12:39:33;;;;;;;17.60;3.38;;;16.70;99.90;;;;;;5048409;28;20399;-84
2022/09/16 12:42:41;;;;;;;13.05;2.95;;;16.60;99.90;;;;;;5042983;28;20034;-82
2022/09/16 12:45:15;;;;;;;7.88;2.10;;;16.50;99.90;;;;;;5043712;28;20401;-83
2022/09/16 12:48:07;;;;;;;10.35;2.72;;;16.50;99.90;;;;;;5045055;28;20060;-80
2022/09/16 12:51:04;;;;;;;13.15;2.90;;;16.50;99.90;;;;;;5021978;28;20061;-83
2022/09/16 12:53:54;;;;;;;13.50;2.65;;;16.60;99.90;;;;;;5038164;28;20259;-82
2022/09/16 12:56:25;;;;;;;14.93;2.88;;;15.90;99.90;;;;;;5028836;28;20088;-81
2022/09/16 12:58:58;;;;;;;13.85;2.42;;;15.10;99.90;;;;;;5044589;28;20041;-81
2022/09/16 13:01:34;;;;;;;13.35;2.85;;;15.00;99.90;;;;;;5044124;28;20037;-82
2022/09/16 13:04:07;;;;;;;17.92;2.83;;;14.90;99.90;;;;;;5046981;28;20053;-83
2022/09/16 13:06:38;;;;;;;19.30;2.58;;;15.10;99.90;;;;;;5034398;28;20105;-82
2022/09/16 13:09:19;;;;;;;;;;;15.20;99.90;;;;;;5027451;28;20048;-81
2022/09/16 13:11:59;;;;;;;13.80;3.38;;;15.20;99.90;;;;;;5026929;28;19931;-81
2022/09/16 13:14:47;;;;;;;12.32;3.22;;;15.40;99.90;;;;;;5027100;28;20041;-84
2022/09/16 13:17:13;;;;;;;4.05;1.02;;;15.60;99.90;;;;;;5014910;28;20041;-76
2022/09/16 13:19:46;;;;;;;10.50;1.75;;;15.70;99.90;;;;;;5027079;28;20102;-83